Time;durP1;ratioP1;P1;durP2;ratioP2;P2;SDS_P1;SDS_P2;PMS_P1;PMS_P2;Temp;Humidity;BMP_temperature;BMP_pressure;BME280_temperature;BME280_humidity;BME280_pressure;Samples;Min_cycle;Max_cycle;Signal;HPM_P1;HPM_P2
2022/09/15 00:01:22;;;;;;;1.88;1.77;;;25.10;68.60;;;;;;4983374;28;20096;-52
2022/09/15 00:03:47;;;;;;;1.33;1.27;;;25.10;68.70;;;;;;4987387;28;20568;-46
2022/09/15 00:06:13;;;;;;;1.17;1.17;;;25.20;68.70;;;;;;4985319;28;20042;-59
2022/09/15 00:08:39;;;;;;;1.40;1.30;;;25.10;68.60;;;;;;4986524;28;20054;-57
2022/09/15 00:11:15;;;;;;;1.27;1.27;;;25.10;68.70;;;;;;4988638;28;20808;-53
2022/09/15 00:13:40;;;;;;;1.30;1.23;;;25.10;68.70;;;;;;4987111;28;20103;-58
2022/09/15 00:16:07;;;;;;;1.30;1.20;;;25.10;68.60;;;;;;4988026;28;20054;-41
2022/09/15 00:18:33;;;;;;;1.42;1.30;;;25.10;68.60;;;;;;4998829;28;20053;-37
2022/09/15 00:20:58;;;;;;;1.50;1.40;;;25.10;68.60;;;;;;5005173;28;20044;-43
2022/09/15 00:23:24;;;;;;;1.58;1.48;;;25.10;68.50;;;;;;4986363;28;20046;-57
2022/09/15 00:25:51;;;;;;;1.30;1.20;;;25.10;68.50;;;;;;5007089;28;20061;-52
2022/09/15 00:28:19;;;;;;;1.20;1.10;;;25.10;68.40;;;;;;4988305;28;20054;-52
2022/09/15 00:30:47;;;;;;;1.42;1.40;;;25.10;68.40;;;;;;5003333;28;20762;-39
2022/09/15 00:33:13;;;;;;;1.17;1.17;;;25.10;68.40;;;;;;4991300;28;20082;-39
2022/09/15 00:35:40;;;;;;;1.30;1.20;;;25.10;69.00;;;;;;4985275;28;20043;-48
2022/09/15 00:38:06;;;;;;;1.10;1.10;;;25.10;68.30;;;;;;4988584;28;20046;-44
2022/09/15 00:40:32;;;;;;;1.42;1.33;;;25.10;68.20;;;;;;4988998;28;20031;-53
2022/09/15 00:42:57;;;;;;;1.20;1.20;;;25.10;68.20;;;;;;4999499;28;20060;-45
2022/09/15 00:45:23;;;;;;;0.88;0.88;;;25.10;68.10;;;;;;4998269;28;20421;-44
2022/09/15 00:47:49;;;;;;;1.25;1.20;;;25.10;68.10;;;;;;4992298;28;20048;-59
2022/09/15 00:50:16;;;;;;;1.23;1.23;;;25.10;68.10;;;;;;5001728;28;20060;-50
2022/09/15 00:52:53;;;;;;;0.93;0.93;;;25.10;68.20;;;;;;5000774;28;20050;-58
2022/09/15 00:55:30;;;;;;;1.00;1.00;;;25.10;68.20;;;;;;4973020;28;20034;-42
2022/09/15 00:58:02;;;;;;;1.33;1.27;;;25.10;68.10;;;;;;5000475;28;20401;-43
2022/09/15 01:00:27;;;;;;;1.27;1.17;;;25.10;68.10;;;;;;4982821;28;20042;-51
2022/09/15 01:02:53;;;;;;;1.00;1.00;;;25.10;68.80;;;;;;4989139;28;20470;-54
2022/09/15 01:05:23;;;;;;;1.10;1.10;;;25.10;68.20;;;;;;4991910;28;20524;-47
2022/09/15 01:07:58;;;;;;;1.00;1.00;;;25.10;68.20;;;;;;4982797;28;20089;-58
2022/09/15 01:10:43;;;;;;;1.02;1.02;;;25.10;68.10;;;;;;4996949;28;20069;-44
2022/09/15 01:13:11;;;;;;;1.00;1.00;;;25.10;68.10;;;;;;5004249;28;20042;-57
2022/09/15 01:16:07;;;;;;;1.20;1.10;;;25.10;68.10;;;;;;4984050;28;20061;-54
2022/09/15 01:18:36;;;;;;;0.93;0.93;;;25.00;68.00;;;;;;4990478;28;20519;-54
2022/09/15 01:21:11;;;;;;;1.02;1.02;;;25.00;68.00;;;;;;4995057;28;20133;-53
2022/09/15 01:23:58;;;;;;;0.93;0.93;;;25.10;68.90;;;;;;4987475;28;20520;-51
2022/09/15 01:27:04;;;;;;;0.70;0.70;;;25.00;68.00;;;;;;4968612;28;20130;-41
2022/09/15 01:29:52;;;;;;;0.80;0.80;;;25.00;68.00;;;;;;4983889;28;20531;-51
2022/09/15 01:35:08;;;;;;;1.10;1.10;;;25.10;68.00;;;;;;4982853;28;20076;-38
2022/09/15 01:37:37;;;;;;;0.70;0.70;;;25.00;68.00;;;;;;4992776;28;20070;-53
2022/09/15 01:40:03;;;;;;;0.75;0.70;;;25.00;68.00;;;;;;5002939;28;20105;-49
2022/09/15 01:42:29;;;;;;;0.90;0.90;;;25.00;68.00;;;;;;5009063;28;20042;-53
2022/09/15 01:45:21;;;;;;;0.70;0.70;;;25.00;68.00;;;;;;4979898;28;20042;-52
2022/09/15 01:47:47;;;;;;;1.00;1.00;;;25.00;67.90;;;;;;5002034;28;20064;-49
2022/09/15 01:50:15;;;;;;;0.90;0.90;;;25.00;67.90;;;;;;4986312;28;20518;-56
2022/09/15 01:52:42;;;;;;;0.68;0.68;;;25.00;67.90;;;;;;4984745;28;20034;-56
2022/09/15 01:55:12;;;;;;;0.90;0.90;;;25.00;68.00;;;;;;5010376;28;20038;-42
2022/09/15 01:57:37;;;;;;;1.20;1.10;;;25.00;67.90;;;;;;4972939;28;20034;-51
2022/09/15 02:00:04;;;;;;;0.70;0.70;;;25.00;67.90;;;;;;4990744;28;20080;-52
2022/09/15 02:02:50;;;;;;;0.70;0.70;;;25.00;67.90;;;;;;4993206;28;20037;-50
2022/09/15 02:05:24;;;;;;;0.80;0.80;;;25.00;67.80;;;;;;5027437;28;20044;-47
2022/09/15 02:07:57;;;;;;;1.00;1.00;;;25.00;67.80;;;;;;5040005;28;20110;-50
2022/09/15 02:10:59;;;;;;;0.60;0.60;;;25.00;67.90;;;;;;5044182;28;20047;-44
2022/09/15 02:13:38;;;;;;;0.85;0.85;;;25.00;67.90;;;;;;5043021;28;20102;-50
2022/09/15 02:16:03;;;;;;;0.82;0.82;;;25.00;67.90;;;;;;5043540;28;20484;-57
2022/09/15 02:18:35;;;;;;;0.77;0.77;;;25.00;67.90;;;;;;5043435;28;20060;-51
2022/09/15 02:21:09;;;;;;;0.60;0.60;;;25.00;67.90;;;;;;5038391;28;20048;-52
2022/09/15 02:23:44;;;;;;;0.63;0.63;;;25.00;67.90;;;;;;5042047;28;20126;-59
2022/09/15 02:26:16;;;;;;;0.80;0.80;;;25.00;68.70;;;;;;5043605;28;20115;-56
2022/09/15 02:28:42;;;;;;;0.80;0.80;;;25.00;67.80;;;;;;5042721;28;20044;-50
2022/09/15 02:31:12;;;;;;;1.05;0.80;;;24.90;67.80;;;;;;5044291;28;20045;-41
2022/09/15 02:33:40;;;;;;;0.80;0.80;;;25.00;67.80;;;;;;5039952;28;20508;-44
2022/09/15 02:36:06;;;;;;;0.60;0.60;;;25.00;67.80;;;;;;5044198;28;20057;-49
2022/09/15 02:38:34;;;;;;;0.65;0.65;;;24.90;67.80;;;;;;5042429;28;20119;-56
2022/09/15 02:41:00;;;;;;;0.50;0.50;;;25.00;67.80;;;;;;5042246;28;20507;-49
2022/09/15 02:43:25;;;;;;;0.40;0.40;;;25.00;67.80;;;;;;5042606;28;20098;-47
2022/09/15 02:45:51;;;;;;;0.75;0.75;;;25.00;67.80;;;;;;5044609;28;20516;-56
2022/09/15 02:48:17;;;;;;;0.50;0.50;;;24.90;67.70;;;;;;5043224;28;20539;-44
2022/09/15 02:50:43;;;;;;;0.60;0.60;;;25.00;67.80;;;;;;5043804;28;20128;-47
2022/09/15 02:53:08;;;;;;;0.60;0.60;;;25.00;67.80;;;;;;5043830;28;20136;-51
2022/09/15 02:55:34;;;;;;;0.60;0.60;;;25.00;67.80;;;;;;5041359;28;20041;-49
2022/09/15 02:57:59;;;;;;;0.80;0.80;;;24.90;67.80;;;;;;5041602;28;20061;-38
2022/09/15 03:00:27;;;;;;;0.63;0.63;;;24.90;67.70;;;;;;5041129;28;20041;-54
2022/09/15 03:02:53;;;;;;;0.52;0.52;;;24.90;67.70;;;;;;5036198;28;20062;-55
2022/09/15 03:05:37;;;;;;;0.65;0.65;;;24.90;67.70;;;;;;4982432;28;20421;-50
2022/09/15 03:08:02;;;;;;;0.50;0.50;;;24.90;67.70;;;;;;4991418;28;20088;-41
2022/09/15 03:10:28;;;;;;;0.60;0.60;;;24.90;67.70;;;;;;4995302;28;20046;-49
2022/09/15 03:12:53;;;;;;;0.60;0.60;;;24.90;67.70;;;;;;4998813;28;20046;-55
2022/09/15 03:15:21;;;;;;;0.65;0.65;;;24.90;67.70;;;;;;4982967;28;20609;-49
2022/09/15 03:17:46;;;;;;;0.60;0.60;;;24.90;67.70;;;;;;4997766;28;20124;-58
2022/09/15 03:20:14;;;;;;;0.43;0.43;;;24.90;67.60;;;;;;4983497;28;20469;-39
2022/09/15 03:22:40;;;;;;;0.57;0.43;;;24.90;67.70;;;;;;4993069;28;20057;-47
2022/09/15 03:25:06;;;;;;;0.50;0.50;;;24.90;67.70;;;;;;5004263;28;20046;-51
2022/09/15 03:27:32;;;;;;;0.50;0.50;;;24.90;67.70;;;;;;4997406;28;20060;-60
2022/09/15 03:29:58;;;;;;;0.40;0.40;;;24.90;67.70;;;;;;4998804;28;20060;-56
2022/09/15 03:32:24;;;;;;;0.40;0.40;;;24.90;67.70;;;;;;4989619;28;20505;-55
2022/09/15 03:34:49;;;;;;;0.50;0.50;;;24.90;67.70;;;;;;4988678;28;20069;-50
2022/09/15 03:37:15;;;;;;;0.45;0.45;;;24.90;68.40;;;;;;4981455;28;20513;-53
2022/09/15 03:39:40;;;;;;;0.55;0.55;;;24.90;67.70;;;;;;5003550;28;20035;-58
2022/09/15 03:42:06;;;;;;;0.40;0.40;;;24.90;67.70;;;;;;4992678;28;20043;-57
2022/09/15 03:44:31;;;;;;;0.40;0.40;;;24.90;67.70;;;;;;4985649;28;20570;-53
2022/09/15 03:46:57;;;;;;;0.40;0.40;;;24.90;67.70;;;;;;4985709;28;20026;-44
2022/09/15 03:49:23;;;;;;;0.50;0.50;;;24.90;67.70;;;;;;5010933;28;20050;-57
2022/09/15 03:51:49;;;;;;;0.50;0.50;;;24.90;67.70;;;;;;4997367;28;20548;-55
2022/09/15 03:54:15;;;;;;;0.60;0.60;;;24.90;67.70;;;;;;5000889;28;20104;-55
2022/09/15 03:56:41;;;;;;;0.50;0.50;;;24.90;67.60;;;;;;4986315;28;20046;-49
2022/09/15 03:59:07;;;;;;;0.32;0.32;;;24.90;68.40;;;;;;4987697;28;20463;-50
2022/09/15 04:01:32;;;;;;;0.40;0.40;;;24.90;67.60;;;;;;5002903;28;20069;-54
2022/09/15 04:03:58;;;;;;;0.30;0.30;;;24.90;67.70;;;;;;4984383;28;20073;-59
2022/09/15 04:06:24;;;;;;;0.63;0.40;;;24.90;67.70;;;;;;4990809;28;20091;-56
2022/09/15 04:08:50;;;;;;;0.32;0.30;;;24.90;67.70;;;;;;4995869;28;20132;-57
2022/09/15 04:11:16;;;;;;;0.50;0.50;;;24.90;67.60;;;;;;4986922;28;20412;-54
2022/09/15 04:13:41;;;;;;;0.40;0.40;;;24.90;67.70;;;;;;4990112;28;20050;-42
2022/09/15 04:16:09;;;;;;;0.40;0.40;;;24.90;67.70;;;;;;4988499;28;20068;-50
2022/09/15 04:18:34;;;;;;;0.55;0.50;;;24.90;67.70;;;;;;4986687;28;20042;-42
2022/09/15 04:21:05;;;;;;;0.45;0.45;;;24.90;67.60;;;;;;4985597;28;20513;-51
2022/09/15 04:23:30;;;;;;;0.30;0.30;;;24.90;67.60;;;;;;4992711;28;20046;-45
2022/09/15 04:25:56;;;;;;;0.35;0.35;;;24.80;67.60;;;;;;4992856;28;20034;-49
2022/09/15 04:28:23;;;;;;;0.80;0.40;;;24.90;67.70;;;;;;4999060;28;20509;-58
2022/09/15 04:30:49;;;;;;;0.40;0.40;;;24.90;67.70;;;;;;4989711;28;20129;-45
2022/09/15 04:33:14;;;;;;;0.50;0.50;;;24.80;67.70;;;;;;4994123;28;20105;-47
2022/09/15 04:35:40;;;;;;;0.40;0.40;;;24.90;67.70;;;;;;4983938;28;20409;-48
2022/09/15 04:38:06;;;;;;;0.40;0.40;;;24.90;67.60;;;;;;4991105;28;20083;-47
2022/09/15 04:40:32;;;;;;;0.50;0.50;;;24.90;67.70;;;;;;5000573;28;20046;-47
2022/09/15 04:42:58;;;;;;;0.35;0.32;;;24.90;67.60;;;;;;4994961;28;20038;-56
2022/09/15 04:45:23;;;;;;;0.30;0.30;;;24.80;67.60;;;;;;4996398;28;20044;-57
2022/09/15 04:47:50;;;;;;;0.40;0.40;;;24.80;67.70;;;;;;4983389;28;20152;-50
2022/09/15 04:50:16;;;;;;;0.40;0.40;;;24.80;67.70;;;;;;4978655;28;20061;-44
2022/09/15 04:52:41;;;;;;;0.20;0.20;;;24.90;67.70;;;;;;4984851;28;20509;-46
2022/09/15 04:55:07;;;;;;;0.30;0.30;;;24.80;67.70;;;;;;4987152;28;20050;-56
2022/09/15 04:57:33;;;;;;;0.47;0.47;;;24.80;67.70;;;;;;4985735;28;20031;-39
2022/09/15 04:59:59;;;;;;;0.38;0.38;;;24.80;67.70;;;;;;5001013;28;20043;-50
2022/09/15 05:02:24;;;;;;;0.30;0.30;;;24.90;67.60;;;;;;4984908;28;20043;-54
2022/09/15 05:04:50;;;;;;;0.32;0.32;;;24.80;67.60;;;;;;4983452;28;20432;-47
2022/09/15 05:07:16;;;;;;;0.40;0.40;;;24.80;67.60;;;;;;4982784;28;20540;-38
2022/09/15 05:09:42;;;;;;;0.30;0.30;;;24.80;67.50;;;;;;4632781;28;10000243;-39
2022/09/15 05:12:07;;;;;;;0.25;0.25;;;24.80;67.60;;;;;;4973470;28;20058;-45
2022/09/15 05:14:33;;;;;;;0.30;0.30;;;24.80;67.50;;;;;;4980632;28;20470;-38
2022/09/15 05:16:59;;;;;;;0.30;0.30;;;24.80;67.70;;;;;;4972577;28;20046;-37
2022/09/15 05:19:24;;;;;;;0.50;0.40;;;24.80;67.60;;;;;;4970553;28;20584;-48
2022/09/15 05:21:50;;;;;;;0.55;0.55;;;24.80;67.70;;;;;;4970176;28;20042;-45
2022/09/15 05:24:16;;;;;;;0.30;0.30;;;24.80;68.50;;;;;;4971419;28;20043;-42
2022/09/15 05:26:41;;;;;;;0.30;0.30;;;24.80;67.70;;;;;;4625249;28;10000209;-42
2022/09/15 05:29:07;;;;;;;0.30;0.30;;;24.80;67.70;;;;;;4969425;28;20462;-40
2022/09/15 05:31:33;;;;;;;0.40;0.38;;;24.80;67.80;;;;;;4976034;28;20039;-48
2022/09/15 05:34:02;;;;;;;0.30;0.30;;;24.80;68.60;;;;;;4975945;28;20428;-43
2022/09/15 05:36:28;;;;;;;0.30;0.30;;;24.80;67.80;;;;;;4985474;28;20060;-44
2022/09/15 05:38:57;;;;;;;0.20;0.20;;;24.80;67.90;;;;;;4974274;28;20149;-43
2022/09/15 05:41:23;;;;;;;0.30;0.30;;;24.70;68.00;;;;;;4972354;28;20054;-41
2022/09/15 05:43:49;;;;;;;0.40;0.40;;;24.70;68.00;;;;;;4976039;28;20050;-44
2022/09/15 05:46:15;;;;;;;0.43;0.43;;;24.70;68.10;;;;;;4971636;28;20524;-51
2022/09/15 05:48:41;;;;;;;0.30;0.30;;;24.70;68.10;;;;;;4973593;28;20046;-42
2022/09/15 05:51:06;;;;;;;0.47;0.40;;;24.70;68.20;;;;;;4978252;28;20500;-45
2022/09/15 05:53:33;;;;;;;0.30;0.30;;;24.70;68.30;;;;;;4969177;28;20133;-42
2022/09/15 05:56:02;;;;;;;0.32;0.30;;;24.70;68.40;;;;;;4973445;28;20042;-42
2022/09/15 05:58:27;;;;;;;0.30;0.30;;;24.70;68.50;;;;;;4977597;28;20394;-53
2022/09/15 06:00:53;;;;;;;0.25;0.25;;;24.70;68.60;;;;;;4981478;28;20501;-56
2022/09/15 06:03:19;;;;;;;0.30;0.20;;;24.70;68.50;;;;;;4981618;28;20111;-56
2022/09/15 06:05:45;;;;;;;0.30;0.20;;;24.70;68.50;;;;;;4983331;28;20047;-43
2022/09/15 06:08:11;;;;;;;0.30;0.30;;;24.70;68.40;;;;;;4982001;28;20050;-41
2022/09/15 06:10:37;;;;;;;0.55;0.45;;;24.70;68.40;;;;;;4984184;28;20528;-44
2022/09/15 06:13:03;;;;;;;0.30;0.30;;;24.70;68.50;;;;;;4982280;28;20082;-41
2022/09/15 06:15:28;;;;;;;0.25;0.25;;;24.70;68.60;;;;;;4980247;28;20114;-46
2022/09/15 06:17:54;;;;;;;0.75;0.30;;;24.70;68.50;;;;;;4981632;28;20052;-48
2022/09/15 06:20:20;;;;;;;0.30;0.30;;;24.70;68.30;;;;;;4983416;28;20053;-40
2022/09/15 06:22:45;;;;;;;0.25;0.25;;;24.70;68.50;;;;;;4983318;28;20119;-57
2022/09/15 06:25:12;;;;;;;0.25;0.25;;;24.60;68.60;;;;;;4981539;28;20491;-51
2022/09/15 06:27:38;;;;;;;0.47;0.40;;;24.60;68.70;;;;;;4984310;28;20057;-56
2022/09/15 06:30:04;;;;;;;0.30;0.30;;;24.60;68.60;;;;;;4976404;28;20065;-56
2022/09/15 06:32:30;;;;;;;1.10;0.50;;;24.60;68.60;;;;;;4975505;28;20070;-56
2022/09/15 06:34:55;;;;;;;0.40;0.40;;;24.60;68.60;;;;;;4979658;28;20077;-50
2022/09/15 06:37:21;;;;;;;0.77;0.50;;;24.60;68.50;;;;;;4983264;28;20120;-49
2022/09/15 06:39:46;;;;;;;0.60;0.60;;;24.60;68.60;;;;;;4978618;28;20133;-47
2022/09/15 06:42:12;;;;;;;0.60;0.60;;;24.60;68.70;;;;;;4979888;28;20039;-48
2022/09/15 06:44:37;;;;;;;0.88;0.40;;;24.60;68.70;;;;;;4980756;28;20041;-52
2022/09/15 06:47:03;;;;;;;0.60;0.60;;;24.60;68.70;;;;;;4979677;28;20505;-44
2022/09/15 06:49:30;;;;;;;0.35;0.35;;;24.60;68.60;;;;;;4980884;28;20042;-48
2022/09/15 06:51:56;;;;;;;0.43;0.40;;;24.60;68.70;;;;;;4978625;28;20035;-47
2022/09/15 06:54:21;;;;;;;0.50;0.50;;;24.60;68.60;;;;;;4982090;28;20050;-49
2022/09/15 06:56:47;;;;;;;0.63;0.63;;;24.60;68.60;;;;;;4981139;28;20042;-41
2022/09/15 06:59:13;;;;;;;0.40;0.40;;;24.70;68.40;;;;;;4981343;28;20054;-38
2022/09/15 07:01:39;;;;;;;0.55;0.50;;;24.60;68.50;;;;;;4982338;28;20176;-37
2022/09/15 07:04:07;;;;;;;0.40;0.40;;;24.60;68.60;;;;;;4981940;28;20145;-45
2022/09/15 07:06:32;;;;;;;0.80;0.55;;;24.60;68.80;;;;;;4981053;28;20042;-41
2022/09/15 07:08:59;;;;;;;1.33;0.60;;;24.50;68.70;;;;;;4980157;28;20039;-39
2022/09/15 07:11:25;;;;;;;0.70;0.70;;;24.50;68.60;;;;;;4981982;28;20034;-38
2022/09/15 07:13:50;;;;;;;0.40;0.40;;;24.60;68.50;;;;;;4981732;28;20451;-38
2022/09/15 07:16:17;;;;;;;0.55;0.40;;;24.60;68.30;;;;;;4981833;28;20513;-41
2022/09/15 07:18:43;;;;;;;0.35;0.35;;;24.60;68.30;;;;;;4983918;28;20080;-38
2022/09/15 07:21:22;;;;;;;0.40;0.40;;;24.60;68.50;;;;;;4987819;28;20075;-40
2022/09/15 07:23:48;;;;;;;0.38;0.38;;;24.50;68.60;;;;;;4978807;28;20171;-38
2022/09/15 07:26:17;;;;;;;0.47;0.47;;;24.50;68.50;;;;;;4979428;28;20129;-38
2022/09/15 07:28:44;;;;;;;0.77;0.35;;;24.50;68.50;;;;;;4979830;28;20525;-41
2022/09/15 07:31:12;;;;;;;0.73;0.40;;;24.50;68.50;;;;;;4982561;28;20046;-39
2022/09/15 07:33:37;;;;;;;0.30;0.30;;;24.50;68.50;;;;;;4983905;28;20077;-39
2022/09/15 07:36:04;;;;;;;0.32;0.32;;;24.50;68.40;;;;;;4999891;28;20483;-36
2022/09/15 07:38:29;;;;;;;1.73;0.40;;;24.60;68.40;;;;;;4986430;28;20049;-38
2022/09/15 07:41:02;;;;;;;1.00;0.47;;;24.60;68.10;;;;;;4987254;28;20433;-38
2022/09/15 07:43:27;;;;;;;0.65;0.30;;;24.60;68.00;;;;;;5011320;28;20038;-39
2022/09/15 07:45:56;;;;;;;0.60;0.40;;;24.60;67.90;;;;;;4991758;28;20485;-40
2022/09/15 07:48:22;;;;;;;0.63;0.40;;;24.60;67.90;;;;;;4984484;28;20428;-39
2022/09/15 07:50:47;;;;;;;0.43;0.43;;;24.60;67.50;;;;;;4984997;28;20041;-39
2022/09/15 07:53:13;;;;;;;1.17;0.70;;;24.60;67.70;;;;;;4985846;28;20043;-42
2022/09/15 07:55:39;;;;;;;0.60;0.60;;;24.60;67.80;;;;;;4995783;28;20057;-38
2022/09/15 07:58:05;;;;;;;0.60;0.60;;;24.60;67.80;;;;;;5007331;28;20524;-42
2022/09/15 08:00:30;;;;;;;0.88;0.68;;;24.90;66.80;;;;;;4985602;28;20034;-40
2022/09/15 08:02:56;;;;;;;0.70;0.50;;;25.00;66.10;;;;;;4982707;28;20049;-38
2022/09/15 08:05:26;;;;;;;0.50;0.50;;;24.80;66.50;;;;;;4984895;28;20414;-38
2022/09/15 08:07:53;;;;;;;0.65;0.50;;;24.70;67.30;;;;;;4995866;28;20053;-39
2022/09/15 08:10:19;;;;;;;0.52;0.35;;;24.70;67.50;;;;;;4985630;28;20046;-38
2022/09/15 08:12:44;;;;;;;0.32;0.32;;;24.60;67.50;;;;;;4985509;28;20103;-39
2022/09/15 08:15:10;;;;;;;0.75;0.40;;;24.60;67.60;;;;;;4996314;28;20518;-39
2022/09/15 08:17:35;;;;;;;1.02;0.70;;;24.70;67.60;;;;;;4984511;28;20050;-39
2022/09/15 08:20:01;;;;;;;0.73;0.45;;;24.70;67.60;;;;;;5001983;28;20413;-38
2022/09/15 08:22:27;;;;;;;0.40;0.40;;;24.70;68.30;;;;;;4997460;28;20111;-39
2022/09/15 08:24:52;;;;;;;0.47;0.35;;;24.70;67.60;;;;;;4987565;28;20390;-40
2022/09/15 08:27:18;;;;;;;0.73;0.35;;;24.70;67.60;;;;;;4982137;28;20042;-39
2022/09/15 08:29:44;;;;;;;0.80;0.50;;;24.70;67.50;;;;;;4635535;28;10000648;-37
2022/09/15 08:32:09;;;;;;;0.50;0.40;;;24.70;67.30;;;;;;4980408;28;20054;-42
2022/09/15 08:34:35;;;;;;;0.40;0.40;;;24.70;67.50;;;;;;4980754;28;20058;-38
2022/09/15 08:37:01;;;;;;;1.10;0.35;;;24.70;67.60;;;;;;4981529;28;20141;-26
2022/09/15 08:39:26;;;;;;;1.20;0.68;;;24.70;67.50;;;;;;4981625;28;20054;-37
2022/09/15 08:41:52;;;;;;;0.63;0.60;;;24.70;67.50;;;;;;4979916;28;20034;-39
2022/09/15 08:44:45;;;;;;;0.30;0.30;;;24.70;68.00;;;;;;4978538;28;20417;-39
2022/09/15 08:47:22;;;;;;;0.47;0.30;;;24.70;67.30;;;;;;4985703;28;20062;-39
2022/09/15 08:50:20;;;;;;;0.43;0.43;;;24.70;67.30;;;;;;4984365;28;20509;-40
2022/09/15 08:52:51;;;;;;;0.52;0.47;;;24.70;67.20;;;;;;4982763;28;20038;-39
2022/09/15 08:55:37;;;;;;;0.68;0.60;;;24.80;67.20;;;;;;4982315;28;20038;-39
2022/09/15 08:58:04;;;;;;;0.60;0.57;;;24.80;66.90;;;;;;4983594;28;20042;-37
2022/09/15 09:00:30;;;;;;;1.15;0.80;;;24.80;67.00;;;;;;4984370;28;20077;-39
2022/09/15 09:03:10;;;;;;;1.30;0.80;;;24.90;66.60;;;;;;4985575;28;20039;-39
2022/09/15 09:06:04;;;;;;;1.75;0.82;;;24.90;66.70;;;;;;4984589;28;20034;-39
2022/09/15 09:08:55;;;;;;;0.90;0.50;;;24.90;66.80;;;;;;4631411;28;10000398;-40
2022/09/15 09:11:32;;;;;;;0.63;0.50;;;24.90;66.80;;;;;;4979008;28;20057;-40
2022/09/15 09:14:25;;;;;;;1.00;0.73;;;24.80;66.70;;;;;;4981808;28;20038;-40
2022/09/15 09:17:00;;;;;;;0.75;0.60;;;24.90;66.70;;;;;;4982833;28;20035;-41
2022/09/15 09:19:34;;;;;;;0.70;0.60;;;24.90;66.70;;;;;;4990492;28;20054;-42
2022/09/15 09:22:08;;;;;;;0.73;0.60;;;24.80;66.60;;;;;;4984794;28;20034;-42
2022/09/15 09:24:39;;;;;;;0.82;0.65;;;24.80;66.60;;;;;;4981591;28;20042;-41
2022/09/15 09:27:07;;;;;;;1.52;0.82;;;24.90;66.60;;;;;;4979895;28;20118;-40
2022/09/15 09:29:35;;;;;;;0.77;0.50;;;24.90;66.60;;;;;;4993652;28;20473;-39
2022/09/15 09:32:01;;;;;;;0.50;0.50;;;24.90;66.60;;;;;;4980979;28;20060;-41
2022/09/15 09:34:26;;;;;;;0.80;0.68;;;24.90;66.60;;;;;;4982893;28;20100;-40
2022/09/15 09:36:56;;;;;;;0.80;0.60;;;24.90;66.40;;;;;;4979600;28;20065;-41
2022/09/15 09:39:22;;;;;;;0.75;0.55;;;24.90;66.40;;;;;;4983977;28;20103;-39
2022/09/15 09:41:47;;;;;;;1.00;0.90;;;24.90;66.30;;;;;;4985136;28;20035;-39
2022/09/15 09:44:13;;;;;;;2.05;0.73;;;24.90;66.50;;;;;;4982494;28;20050;-39
2022/09/15 09:46:39;;;;;;;0.88;0.75;;;24.90;66.10;;;;;;4991984;28;20046;-39
2022/09/15 09:49:24;;;;;;;0.60;0.60;;;24.90;65.60;;;;;;4982742;28;20133;-37
2022/09/15 09:51:54;;;;;;;0.70;0.70;;;24.90;66.10;;;;;;4991354;28;20030;-40
2022/09/15 09:54:21;;;;;;;1.67;0.60;;;24.90;65.70;;;;;;4989846;28;20050;-40
2022/09/15 09:56:48;;;;;;;1.02;0.70;;;24.90;66.10;;;;;;4983250;28;20144;-40
2022/09/15 09:59:42;;;;;;;0.88;0.80;;;25.00;66.00;;;;;;4988683;28;20133;-39
2022/09/15 10:02:10;;;;;;;0.68;0.68;;;25.00;65.70;;;;;;4981641;28;20054;-40
2022/09/15 10:04:43;;;;;;;0.93;0.70;;;25.00;66.40;;;;;;4988711;28;20046;-41
2022/09/15 10:07:08;;;;;;;0.73;0.73;;;25.00;66.60;;;;;;5000636;28;20054;-39
2022/09/15 10:09:34;;;;;;;0.60;0.60;;;25.00;66.20;;;;;;5000340;28;20052;-39
2022/09/15 10:12:02;;;;;;;0.95;0.80;;;25.00;66.10;;;;;;4981490;28;20131;-39
2022/09/15 10:14:32;;;;;;;1.58;0.77;;;25.00;66.00;;;;;;4983920;28;20055;-39
2022/09/15 10:17:20;;;;;;;1.23;0.60;;;25.00;65.80;;;;;;4981967;28;20054;-38
2022/09/15 10:19:57;;;;;;;0.82;0.77;;;25.00;65.90;;;;;;4997658;28;20505;-42
2022/09/15 10:22:33;;;;;;;1.40;0.70;;;25.00;65.40;;;;;;4986542;28;20046;-39
2022/09/15 10:25:00;;;;;;;0.60;0.60;;;25.00;65.30;;;;;;4985551;28;20489;-40
2022/09/15 10:27:32;;;;;;;1.48;0.65;;;25.00;65.50;;;;;;4980406;28;20051;-41
2022/09/15 10:30:13;;;;;;;0.60;0.60;;;25.00;65.40;;;;;;4996206;28;20041;-39
2022/09/15 10:32:40;;;;;;;1.75;0.65;;;25.00;65.80;;;;;;4986919;28;20034;-40
2022/09/15 10:35:09;;;;;;;0.85;0.68;;;25.00;65.90;;;;;;4982737;28;20073;-39
2022/09/15 10:37:42;;;;;;;1.17;0.82;;;25.00;65.80;;;;;;4984039;28;20053;-40
2022/09/15 10:40:27;;;;;;;0.60;0.50;;;25.00;66.10;;;;;;4981682;28;20073;-36
2022/09/15 10:42:59;;;;;;;0.70;0.60;;;25.00;66.20;;;;;;4992182;28;20130;-45
2022/09/15 10:45:45;;;;;;;2.13;0.50;;;25.00;66.10;;;;;;4986219;28;20046;-41
2022/09/15 10:48:28;;;;;;;0.70;0.70;;;25.00;66.10;;;;;;4980700;28;20132;-39
2022/09/15 10:51:00;;;;;;;0.88;0.75;;;25.00;65.90;;;;;;4997759;28;20050;-39
2022/09/15 10:53:53;;;;;;;0.98;0.60;;;25.00;65.70;;;;;;4982421;28;20042;-39
2022/09/15 10:56:39;;;;;;;0.52;0.52;;;25.10;65.80;;;;;;4981683;28;20092;-39
2022/09/15 10:59:11;;;;;;;1.52;0.50;;;25.10;65.90;;;;;;4981018;28;20042;-39
2022/09/15 11:02:09;;;;;;;0.85;0.70;;;25.10;65.80;;;;;;5001513;28;20038;-39
2022/09/15 11:04:56;;;;;;;1.08;0.60;;;25.10;65.70;;;;;;4984943;28;20138;-41
2022/09/15 11:07:31;;;;;;;1.40;1.00;;;25.10;65.70;;;;;;4983174;28;20519;-39
2022/09/15 11:10:00;;;;;;;0.60;0.60;;;25.10;65.60;;;;;;4999773;28;20513;-39
2022/09/15 11:12:45;;;;;;;0.60;0.60;;;25.10;65.70;;;;;;5001555;28;20037;-39
2022/09/15 11:15:20;;;;;;;0.60;0.50;;;25.10;65.80;;;;;;4987183;28;20047;-39
2022/09/15 11:18:00;;;;;;;0.60;0.60;;;25.10;65.80;;;;;;4981811;28;20038;-39
2022/09/15 11:20:54;;;;;;;0.50;0.40;;;25.10;65.80;;;;;;4982554;28;20037;-39
2022/09/15 11:23:40;;;;;;;0.40;0.40;;;25.10;65.90;;;;;;4983012;28;20046;-39
2022/09/15 11:26:13;;;;;;;1.05;0.70;;;25.10;65.80;;;;;;4998902;28;20053;-40
2022/09/15 11:28:43;;;;;;;0.67;0.60;;;25.10;65.70;;;;;;4975253;28;20049;-40
2022/09/15 11:31:12;;;;;;;0.68;0.68;;;25.10;65.70;;;;;;4992785;28;20050;-42
2022/09/15 11:33:48;;;;;;;0.90;0.75;;;25.10;65.90;;;;;;4975373;28;20054;-40
2022/09/15 11:36:24;;;;;;;0.98;0.88;;;25.20;65.90;;;;;;4988309;28;20054;-40
2022/09/15 11:39:06;;;;;;;0.52;0.52;;;25.20;65.00;;;;;;4992302;28;20544;-42
2022/09/15 11:41:37;;;;;;;1.90;0.70;;;25.20;64.50;;;;;;4974229;28;20061;-41
2022/09/15 11:44:23;;;;;;;0.70;0.70;;;25.20;64.80;;;;;;4989717;28;20125;-40
2022/09/15 11:47:22;;;;;;;0.75;0.75;;;25.20;65.20;;;;;;4976338;28;20525;-44
2022/09/15 11:50:07;;;;;;;0.90;0.70;;;25.20;64.50;;;;;;4982503;28;20034;-42
2022/09/15 11:53:07;;;;;;;1.13;0.95;;;25.20;65.60;;;;;;4984350;28;20095;-42
2022/09/15 11:55:41;;;;;;;0.80;0.80;;;25.20;64.80;;;;;;4978185;28;20058;-41
2022/09/15 11:58:20;;;;;;;0.70;0.70;;;25.20;64.90;;;;;;4981360;28;20030;-44
2022/09/15 12:00:56;;;;;;;0.75;0.73;;;25.20;64.40;;;;;;4980249;28;20440;-40
2022/09/15 12:03:33;;;;;;;0.95;0.70;;;25.20;65.10;;;;;;4983217;28;20520;-42
2022/09/15 12:06:25;;;;;;;0.98;0.80;;;25.20;64.30;;;;;;4973084;28;20038;-42
2022/09/15 12:08:56;;;;;;;1.50;0.95;;;25.20;64.50;;;;;;4985871;28;20488;-42
2022/09/15 12:11:24;;;;;;;0.68;0.68;;;25.20;63.30;;;;;;4983672;28;20058;-43
2022/09/15 12:13:51;;;;;;;0.80;0.80;;;25.20;64.50;;;;;;4992189;28;20054;-42
2022/09/15 12:16:16;;;;;;;0.90;0.90;;;25.20;63.90;;;;;;4986118;28;20426;-41
2022/09/15 12:18:47;;;;;;;2.08;0.93;;;25.30;64.30;;;;;;4999031;28;20571;-42
2022/09/15 12:21:28;;;;;;;2.55;0.80;;;25.30;63.80;;;;;;4982623;28;20050;-26
2022/09/15 12:23:58;;;;;;;0.75;0.73;;;25.30;63.60;;;;;;4985416;28;20068;-42
2022/09/15 12:26:24;;;;;;;0.77;0.77;;;25.20;63.60;;;;;;4993515;28;20420;-42
2022/09/15 12:29:03;;;;;;;0.80;0.80;;;25.20;64.60;;;;;;4982963;28;20046;-42
2022/09/15 12:31:33;;;;;;;0.80;0.80;;;25.20;64.90;;;;;;4984430;28;20049;-42
2022/09/15 12:34:03;;;;;;;0.93;0.93;;;25.20;65.00;;;;;;4983194;28;20077;-42
2022/09/15 12:36:39;;;;;;;0.52;0.52;;;25.20;64.90;;;;;;4980947;28;20053;-41
2022/09/15 12:39:21;;;;;;;0.73;0.73;;;25.20;65.00;;;;;;4982950;28;20038;-40
2022/09/15 12:42:04;;;;;;;0.63;0.60;;;25.20;64.40;;;;;;5020046;28;20133;-42
2022/09/15 12:44:36;;;;;;;0.88;0.85;;;25.20;64.20;;;;;;4980874;28;21767;-42
2022/09/15 12:47:04;;;;;;;0.93;0.80;;;25.30;63.50;;;;;;4626195;28;10000656;-42
2022/09/15 12:49:35;;;;;;;1.00;1.00;;;25.30;63.80;;;;;;5017057;28;20038;-42
2022/09/15 12:52:04;;;;;;;0.77;0.77;;;25.30;62.90;;;;;;4987322;28;20181;-42
2022/09/15 12:54:31;;;;;;;1.33;0.73;;;25.30;63.20;;;;;;4978448;28;20119;-42
2022/09/15 12:56:57;;;;;;;0.88;0.88;;;25.30;62.60;;;;;;4998513;28;20057;-43
2022/09/15 12:59:26;;;;;;;0.80;0.80;;;25.30;62.50;;;;;;4975998;28;20424;-41
2022/09/15 13:01:53;;;;;;;0.73;0.73;;;25.30;63.10;;;;;;5011488;28;20125;-42
2022/09/15 13:04:41;;;;;;;0.90;0.90;;;25.40;63.00;;;;;;4991778;28;21652;-43